sensor_id;sensor_type;location;lat;lon;timestamp;temperature;humidity
41884;DHT22;27566;50.930;5.328;2023-06-19T00:02:03;23.50;53.70
41884;DHT22;27566;50.930;5.328;2023-06-19T00:04:29;23.40;54.10
41884;DHT22;27566;50.930;5.328;2023-06-19T00:06:55;23.40;54.40
41884;DHT22;27566;50.930;5.328;2023-06-19T00:09:20;23.30;54.70
41884;DHT22;27566;50.930;5.328;2023-06-19T00:11:46;23.30;54.80
41884;DHT22;27566;50.930;5.328;2023-06-19T00:14:12;23.30;54.90
41884;DHT22;27566;50.930;5.328;2023-06-19T00:16:38;23.30;55.00
41884;DHT22;27566;50.930;5.328;2023-06-19T00:19:05;23.30;55.10
41884;DHT22;27566;50.930;5.328;2023-06-19T00:21:31;23.40;55.20
41884;DHT22;27566;50.930;5.328;2023-06-19T00:23:57;23.40;55.20
41884;DHT22;27566;50.930;5.328;2023-06-19T00:26:23;23.40;55.20
41884;DHT22;27566;50.930;5.328;2023-06-19T00:28:53;23.40;55.10
41884;DHT22;27566;50.930;5.328;2023-06-19T00:31:19;23.30;55.10
41884;DHT22;27566;50.930;5.328;2023-06-19T00:33:45;23.30;55.50
41884;DHT22;27566;50.930;5.328;2023-06-19T00:36:13;23.20;55.90
41884;DHT22;27566;50.930;5.328;2023-06-19T00:38:40;23.10;56.20
41884;DHT22;27566;50.930;5.328;2023-06-19T00:41:06;23.00;56.30
41884;DHT22;27566;50.930;5.328;2023-06-19T00:43:32;23.00;56.40
41884;DHT22;27566;50.930;5.328;2023-06-19T00:45:59;22.90;56.70
41884;DHT22;27566;50.930;5.328;2023-06-19T00:48:27;22.90;57.00
41884;DHT22;27566;50.930;5.328;2023-06-19T00:50:54;22.90;57.10
41884;DHT22;27566;50.930;5.328;2023-06-19T00:53:21;22.80;57.10
41884;DHT22;27566;50.930;5.328;2023-06-19T00:55:48;22.80;57.20
41884;DHT22;27566;50.930;5.328;2023-06-19T00:58:15;22.90;57.20
41884;DHT22;27566;50.930;5.328;2023-06-19T01:00:41;22.80;57.40
41884;DHT22;27566;50.930;5.328;2023-06-19T01:03:07;22.80;57.60
41884;DHT22;27566;50.930;5.328;2023-06-19T01:05:33;22.80;57.80
41884;DHT22;27566;50.930;5.328;2023-06-19T01:11:00;22.80;57.80
41884;DHT22;27566;50.930;5.328;2023-06-19T01:13:37;22.80;58.00
41884;DHT22;27566;50.930;5.328;2023-06-19T01:16:04;22.80;58.00
41884;DHT22;27566;50.930;5.328;2023-06-19T01:18:32;22.80;58.20
41884;DHT22;27566;50.930;5.328;2023-06-19T01:21:18;22.70;58.60
41884;DHT22;27566;50.930;5.328;2023-06-19T01:23:45;22.60;59.00
41884;DHT22;27566;50.930;5.328;2023-06-19T01:26:12;22.60;59.50
41884;DHT22;27566;50.930;5.328;2023-06-19T01:28:41;22.60;60.00
41884;DHT22;27566;50.930;5.328;2023-06-19T01:31:12;22.50;60.40
41884;DHT22;27566;50.930;5.328;2023-06-19T01:33:40;22.40;61.30
41884;DHT22;27566;50.930;5.328;2023-06-19T01:36:09;22.40;60.90
41884;DHT22;27566;50.930;5.328;2023-06-19T01:38:36;22.30;61.30
41884;DHT22;27566;50.930;5.328;2023-06-19T01:41:05;22.30;61.60
41884;DHT22;27566;50.930;5.328;2023-06-19T01:43:32;22.20;62.30
41884;DHT22;27566;50.930;5.328;2023-06-19T01:46:01;22.20;62.80
41884;DHT22;27566;50.930;5.328;2023-06-19T01:48:28;22.10;63.20
41884;DHT22;27566;50.930;5.328;2023-06-19T01:50:55;22.10;63.80
41884;DHT22;27566;50.930;5.328;2023-06-19T01:53:20;22.10;64.00
41884;DHT22;27566;50.930;5.328;2023-06-19T01:55:46;22.20;64.20
41884;DHT22;27566;50.930;5.328;2023-06-19T01:58:12;22.20;64.10
41884;DHT22;27566;50.930;5.328;2023-06-19T02:00:38;22.30;64.10
41884;DHT22;27566;50.930;5.328;2023-06-19T02:03:04;22.30;64.40
41884;DHT22;27566;50.930;5.328;2023-06-19T02:05:31;22.30;64.50
41884;DHT22;27566;50.930;5.328;2023-06-19T02:07:57;22.20;64.50
41884;DHT22;27566;50.930;5.328;2023-06-19T02:10:23;22.20;64.80
41884;DHT22;27566;50.930;5.328;2023-06-19T02:12:49;22.00;65.30
41884;DHT22;27566;50.930;5.328;2023-06-19T02:15:15;21.90;65.60
41884;DHT22;27566;50.930;5.328;2023-06-19T02:17:41;21.80;66.10
41884;DHT22;27566;50.930;5.328;2023-06-19T02:20:08;21.70;66.60
41884;DHT22;27566;50.930;5.328;2023-06-19T02:22:38;21.60;67.10
41884;DHT22;27566;50.930;5.328;2023-06-19T02:25:05;21.50;67.40
41884;DHT22;27566;50.930;5.328;2023-06-19T02:27:31;21.40;67.30
41884;DHT22;27566;50.930;5.328;2023-06-19T02:29:57;21.40;67.60
41884;DHT22;27566;50.930;5.328;2023-06-19T02:32:23;21.30;67.80
41884;DHT22;27566;50.930;5.328;2023-06-19T02:34:49;21.30;68.00
41884;DHT22;27566;50.930;5.328;2023-06-19T02:37:15;21.20;68.50
41884;DHT22;27566;50.930;5.328;2023-06-19T02:39:41;21.20;69.00
41884;DHT22;27566;50.930;5.328;2023-06-19T02:42:07;21.20;69.20
41884;DHT22;27566;50.930;5.328;2023-06-19T02:44:33;21.10;69.20
41884;DHT22;27566;50.930;5.328;2023-06-19T02:46:59;21.10;69.60
41884;DHT22;27566;50.930;5.328;2023-06-19T02:49:25;21.00;69.80
41884;DHT22;27566;50.930;5.328;2023-06-19T02:51:51;20.90;69.90
41884;DHT22;27566;50.930;5.328;2023-06-19T02:54:17;20.90;70.80
41884;DHT22;27566;50.930;5.328;2023-06-19T02:56:42;20.90;70.40
41884;DHT22;27566;50.930;5.328;2023-06-19T02:59:08;20.90;70.60
41884;DHT22;27566;50.930;5.328;2023-06-19T03:01:34;20.80;70.70
41884;DHT22;27566;50.930;5.328;2023-06-19T03:04:00;20.90;70.60
41884;DHT22;27566;50.930;5.328;2023-06-19T03:06:26;20.90;70.70
41884;DHT22;27566;50.930;5.328;2023-06-19T03:08:52;21.00;70.50
41884;DHT22;27566;50.930;5.328;2023-06-19T03:11:18;21.10;70.50
41884;DHT22;27566;50.930;5.328;2023-06-19T03:13:50;21.10;70.20
41884;DHT22;27566;50.930;5.328;2023-06-19T03:16:16;21.20;70.20
41884;DHT22;27566;50.930;5.328;2023-06-19T03:18:43;21.30;69.80
41884;DHT22;27566;50.930;5.328;2023-06-19T03:21:11;21.30;69.60
41884;DHT22;27566;50.930;5.328;2023-06-19T03:23:37;21.40;69.70
41884;DHT22;27566;50.930;5.328;2023-06-19T03:26:03;21.40;69.40
41884;DHT22;27566;50.930;5.328;2023-06-19T03:28:29;21.40;69.40
41884;DHT22;27566;50.930;5.328;2023-06-19T03:30:55;21.50;69.30
41884;DHT22;27566;50.930;5.328;2023-06-19T03:33:21;21.50;69.20
41884;DHT22;27566;50.930;5.328;2023-06-19T03:35:47;21.50;69.10
41884;DHT22;27566;50.930;5.328;2023-06-19T03:38:12;21.60;69.10
41884;DHT22;27566;50.930;5.328;2023-06-19T03:40:39;21.60;68.80
41884;DHT22;27566;50.930;5.328;2023-06-19T03:43:05;21.70;68.80
41884;DHT22;27566;50.930;5.328;2023-06-19T03:45:31;21.70;68.70
41884;DHT22;27566;50.930;5.328;2023-06-19T03:47:57;21.80;68.40
41884;DHT22;27566;50.930;5.328;2023-06-19T03:50:23;21.90;68.10
41884;DHT22;27566;50.930;5.328;2023-06-19T03:52:49;21.90;67.90
41884;DHT22;27566;50.930;5.328;2023-06-19T03:55:15;22.00;67.60
41884;DHT22;27566;50.930;5.328;2023-06-19T03:57:41;22.10;67.60
41884;DHT22;27566;50.930;5.328;2023-06-19T04:00:07;22.10;67.50
41884;DHT22;27566;50.930;5.328;2023-06-19T04:02:36;22.10;67.30
41884;DHT22;27566;50.930;5.328;2023-06-19T04:05:03;22.20;67.20
41884;DHT22;27566;50.930;5.328;2023-06-19T04:07:29;22.30;67.20
41884;DHT22;27566;50.930;5.328;2023-06-19T04:09:57;22.40;68.20
41884;DHT22;27566;50.930;5.328;2023-06-19T04:12:23;22.40;68.40
41884;DHT22;27566;50.930;5.328;2023-06-19T04:14:49;22.40;68.70
41884;DHT22;27566;50.930;5.328;2023-06-19T04:17:15;22.40;68.70
41884;DHT22;27566;50.930;5.328;2023-06-19T04:19:41;22.40;68.80
41884;DHT22;27566;50.930;5.328;2023-06-19T04:22:07;22.40;69.00
41884;DHT22;27566;50.930;5.328;2023-06-19T04:24:34;22.40;69.00
41884;DHT22;27566;50.930;5.328;2023-06-19T04:27:00;22.30;69.20
41884;DHT22;27566;50.930;5.328;2023-06-19T04:29:26;22.30;69.00
41884;DHT22;27566;50.930;5.328;2023-06-19T04:31:52;22.30;68.60
41884;DHT22;27566;50.930;5.328;2023-06-19T04:34:18;22.40;69.40
41884;DHT22;27566;50.930;5.328;2023-06-19T04:36:48;22.30;69.60
41884;DHT22;27566;50.930;5.328;2023-06-19T04:39:13;22.30;69.80
41884;DHT22;27566;50.930;5.328;2023-06-19T04:41:42;22.30;70.10
41884;DHT22;27566;50.930;5.328;2023-06-19T04:44:09;22.30;70.80
41884;DHT22;27566;50.930;5.328;2023-06-19T04:46:37;22.30;70.30
41884;DHT22;27566;50.930;5.328;2023-06-19T04:49:04;22.30;70.40
41884;DHT22;27566;50.930;5.328;2023-06-19T04:51:31;22.30;70.40
41884;DHT22;27566;50.930;5.328;2023-06-19T04:54:00;22.30;70.10
41884;DHT22;27566;50.930;5.328;2023-06-19T04:56:26;22.40;70.00
41884;DHT22;27566;50.930;5.328;2023-06-19T04:58:53;22.40;69.90
41884;DHT22;27566;50.930;5.328;2023-06-19T05:01:21;22.50;69.70
41884;DHT22;27566;50.930;5.328;2023-06-19T05:03:53;22.50;69.40
41884;DHT22;27566;50.930;5.328;2023-06-19T05:06:21;22.60;69.40
41884;DHT22;27566;50.930;5.328;2023-06-19T05:08:47;22.60;69.10
41884;DHT22;27566;50.930;5.328;2023-06-19T05:11:13;22.60;68.80
41884;DHT22;27566;50.930;5.328;2023-06-19T05:13:39;22.70;68.40
41884;DHT22;27566;50.930;5.328;2023-06-19T05:16:05;22.70;68.20
41884;DHT22;27566;50.930;5.328;2023-06-19T05:18:31;22.70;68.20
41884;DHT22;27566;50.930;5.328;2023-06-19T05:20:57;22.70;68.50
41884;DHT22;27566;50.930;5.328;2023-06-19T05:23:22;22.60;68.40
41884;DHT22;27566;50.930;5.328;2023-06-19T05:25:48;22.70;68.50
41884;DHT22;27566;50.930;5.328;2023-06-19T05:28:14;22.80;68.20
41884;DHT22;27566;50.930;5.328;2023-06-19T05:30:40;23.20;67.80
41884;DHT22;27566;50.930;5.328;2023-06-19T05:33:06;23.80;66.10
41884;DHT22;27566;50.930;5.328;2023-06-19T05:35:32;24.10;64.30
41884;DHT22;27566;50.930;5.328;2023-06-19T05:37:58;24.20;63.50
41884;DHT22;27566;50.930;5.328;2023-06-19T05:40:24;24.90;62.30
41884;DHT22;27566;50.930;5.328;2023-06-19T05:42:49;26.20;58.60
41884;DHT22;27566;50.930;5.328;2023-06-19T05:45:16;27.20;56.00
41884;DHT22;27566;50.930;5.328;2023-06-19T05:47:41;29.00;51.50
41884;DHT22;27566;50.930;5.328;2023-06-19T05:50:08;30.30;48.40
41884;DHT22;27566;50.930;5.328;2023-06-19T05:52:34;32.20;44.60
41884;DHT22;27566;50.930;5.328;2023-06-19T05:55:00;33.60;41.70
41884;DHT22;27566;50.930;5.328;2023-06-19T05:57:26;35.10;38.60
41884;DHT22;27566;50.930;5.328;2023-06-19T05:59:52;36.10;36.70
41884;DHT22;27566;50.930;5.328;2023-06-19T06:02:19;37.00;34.80
41884;DHT22;27566;50.930;5.328;2023-06-19T06:04:45;37.50;34.00
41884;DHT22;27566;50.930;5.328;2023-06-19T06:07:11;37.80;33.00
41884;DHT22;27566;50.930;5.328;2023-06-19T06:09:39;37.70;32.80
41884;DHT22;27566;50.930;5.328;2023-06-19T06:12:05;37.60;32.60
41884;DHT22;27566;50.930;5.328;2023-06-19T06:14:31;37.40;32.80
41884;DHT22;27566;50.930;5.328;2023-06-19T06:16:57;37.60;32.70
41884;DHT22;27566;50.930;5.328;2023-06-19T06:19:23;38.10;32.20
41884;DHT22;27566;50.930;5.328;2023-06-19T06:21:49;38.60;31.60
41884;DHT22;27566;50.930;5.328;2023-06-19T06:24:15;38.10;31.50
41884;DHT22;27566;50.930;5.328;2023-06-19T06:26:41;37.90;32.20
41884;DHT22;27566;50.930;5.328;2023-06-19T06:29:08;37.50;32.60
41884;DHT22;27566;50.930;5.328;2023-06-19T06:31:37;37.20;32.80
41884;DHT22;27566;50.930;5.328;2023-06-19T06:34:03;37.20;32.80
41884;DHT22;27566;50.930;5.328;2023-06-19T06:36:29;37.00;32.70
41884;DHT22;27566;50.930;5.328;2023-06-19T06:38:55;37.00;33.00
41884;DHT22;27566;50.930;5.328;2023-06-19T06:41:21;37.20;32.80
41884;DHT22;27566;50.930;5.328;2023-06-19T06:43:47;36.90;33.10
41884;DHT22;27566;50.930;5.328;2023-06-19T06:46:13;36.20;33.80
41884;DHT22;27566;50.930;5.328;2023-06-19T06:48:40;35.10;35.20
41884;DHT22;27566;50.930;5.328;2023-06-19T06:51:06;34.10;36.70
41884;DHT22;27566;50.930;5.328;2023-06-19T06:53:31;33.30;38.20
41884;DHT22;27566;50.930;5.328;2023-06-19T06:55:58;32.60;39.00
41884;DHT22;27566;50.930;5.328;2023-06-19T06:58:25;31.90;39.80
41884;DHT22;27566;50.930;5.328;2023-06-19T07:00:51;31.30;40.60
41884;DHT22;27566;50.930;5.328;2023-06-19T07:03:17;30.80;42.30
41884;DHT22;27566;50.930;5.328;2023-06-19T07:05:44;30.40;42.30
41884;DHT22;27566;50.930;5.328;2023-06-19T07:08:10;30.00;42.70
41884;DHT22;27566;50.930;5.328;2023-06-19T07:10:36;29.80;42.80
41884;DHT22;27566;50.930;5.328;2023-06-19T07:13:02;29.70;43.00
41884;DHT22;27566;50.930;5.328;2023-06-19T07:15:28;29.50;43.20
41884;DHT22;27566;50.930;5.328;2023-06-19T07:17:53;29.30;43.60
41884;DHT22;27566;50.930;5.328;2023-06-19T07:20:19;29.20;43.70
41884;DHT22;27566;50.930;5.328;2023-06-19T07:22:46;29.10;43.90
41884;DHT22;27566;50.930;5.328;2023-06-19T07:25:12;29.00;43.50
41884;DHT22;27566;50.930;5.328;2023-06-19T07:27:40;28.70;44.00
41884;DHT22;27566;50.930;5.328;2023-06-19T07:30:06;28.50;44.40
41884;DHT22;27566;50.930;5.328;2023-06-19T07:32:32;28.40;44.80
41884;DHT22;27566;50.930;5.328;2023-06-19T07:34:58;28.30;44.80
41884;DHT22;27566;50.930;5.328;2023-06-19T07:37:24;28.10;45.10
41884;DHT22;27566;50.930;5.328;2023-06-19T07:39:51;28.00;45.40
41884;DHT22;27566;50.930;5.328;2023-06-19T07:42:18;28.00;45.90
41884;DHT22;27566;50.930;5.328;2023-06-19T07:44:45;28.20;45.90
41884;DHT22;27566;50.930;5.328;2023-06-19T07:47:11;28.40;45.60
41884;DHT22;27566;50.930;5.328;2023-06-19T07:49:37;28.50;45.30
41884;DHT22;27566;50.930;5.328;2023-06-19T07:52:04;28.50;45.10
41884;DHT22;27566;50.930;5.328;2023-06-19T07:54:33;28.40;45.30
41884;DHT22;27566;50.930;5.328;2023-06-19T07:56:59;28.30;45.70
41884;DHT22;27566;50.930;5.328;2023-06-19T07:59:25;28.20;46.00
41884;DHT22;27566;50.930;5.328;2023-06-19T08:01:52;28.00;46.80
41884;DHT22;27566;50.930;5.328;2023-06-19T08:04:17;27.90;46.30
41884;DHT22;27566;50.930;5.328;2023-06-19T08:06:43;28.00;46.60
41884;DHT22;27566;50.930;5.328;2023-06-19T08:09:09;28.30;46.30
41884;DHT22;27566;50.930;5.328;2023-06-19T08:11:35;28.60;45.90
41884;DHT22;27566;50.930;5.328;2023-06-19T08:14:03;29.00;45.30
41884;DHT22;27566;50.930;5.328;2023-06-19T08:16:29;29.30;44.90
41884;DHT22;27566;50.930;5.328;2023-06-19T08:18:54;29.60;44.40
41884;DHT22;27566;50.930;5.328;2023-06-19T08:21:20;29.70;43.60
41884;DHT22;27566;50.930;5.328;2023-06-19T08:23:47;29.60;43.10
41884;DHT22;27566;50.930;5.328;2023-06-19T08:26:13;29.40;43.60
41884;DHT22;27566;50.930;5.328;2023-06-19T08:28:39;29.50;43.60
41884;DHT22;27566;50.930;5.328;2023-06-19T08:31:07;29.60;43.40
41884;DHT22;27566;50.930;5.328;2023-06-19T08:33:34;29.70;43.00
41884;DHT22;27566;50.930;5.328;2023-06-19T08:36:01;29.70;43.00
41884;DHT22;27566;50.930;5.328;2023-06-19T08:38:27;29.60;43.10
41884;DHT22;27566;50.930;5.328;2023-06-19T08:40:53;29.60;43.30
41884;DHT22;27566;50.930;5.328;2023-06-19T08:43:20;29.50;43.10
41884;DHT22;27566;50.930;5.328;2023-06-19T08:46:15;29.40;43.10
41884;DHT22;27566;50.930;5.328;2023-06-19T08:48:41;29.20;43.50
41884;DHT22;27566;50.930;5.328;2023-06-19T08:51:08;29.00;43.80
41884;DHT22;27566;50.930;5.328;2023-06-19T08:53:36;29.00;44.10
41884;DHT22;27566;50.930;5.328;2023-06-19T08:56:03;29.10;44.30
41884;DHT22;27566;50.930;5.328;2023-06-19T08:58:29;29.10;43.60
41884;DHT22;27566;50.930;5.328;2023-06-19T09:00:58;29.10;43.20
41884;DHT22;27566;50.930;5.328;2023-06-19T09:03:24;29.20;43.00
41884;DHT22;27566;50.930;5.328;2023-06-19T09:05:50;29.10;43.10
41884;DHT22;27566;50.930;5.328;2023-06-19T09:08:17;29.20;43.10
41884;DHT22;27566;50.930;5.328;2023-06-19T09:10:54;29.20;43.10
41884;DHT22;27566;50.930;5.328;2023-06-19T09:13:19;29.30;42.80
41884;DHT22;27566;50.930;5.328;2023-06-19T09:15:45;29.30;42.70
41884;DHT22;27566;50.930;5.328;2023-06-19T09:18:11;29.50;42.60
41884;DHT22;27566;50.930;5.328;2023-06-19T09:20:40;29.50;42.00
41884;DHT22;27566;50.930;5.328;2023-06-19T09:23:12;29.40;41.90
41884;DHT22;27566;50.930;5.328;2023-06-19T09:25:52;29.20;42.10
41884;DHT22;27566;50.930;5.328;2023-06-19T09:28:23;29.10;42.50
41884;DHT22;27566;50.930;5.328;2023-06-19T09:31:00;28.90;42.80
41884;DHT22;27566;50.930;5.328;2023-06-19T09:33:28;28.80;43.30
41884;DHT22;27566;50.930;5.328;2023-06-19T09:35:56;28.80;43.20
41884;DHT22;27566;50.930;5.328;2023-06-19T09:38:25;28.60;42.60
41884;DHT22;27566;50.930;5.328;2023-06-19T09:40:52;28.40;43.60
41884;DHT22;27566;50.930;5.328;2023-06-19T09:43:23;28.20;44.20
41884;DHT22;27566;50.930;5.328;2023-06-19T09:45:50;27.90;44.30
41884;DHT22;27566;50.930;5.328;2023-06-19T09:48:20;27.80;44.80
41884;DHT22;27566;50.930;5.328;2023-06-19T09:50:51;27.80;45.30
41884;DHT22;27566;50.930;5.328;2023-06-19T09:53:19;27.80;45.40
41884;DHT22;27566;50.930;5.328;2023-06-19T09:55:49;27.80;45.30
41884;DHT22;27566;50.930;5.328;2023-06-19T09:58:18;27.80;45.40
41884;DHT22;27566;50.930;5.328;2023-06-19T10:00:46;27.80;45.10
41884;DHT22;27566;50.930;5.328;2023-06-19T10:03:16;27.80;45.70
41884;DHT22;27566;50.930;5.328;2023-06-19T10:05:42;27.80;45.20
41884;DHT22;27566;50.930;5.328;2023-06-19T10:08:09;27.80;45.10
41884;DHT22;27566;50.930;5.328;2023-06-19T10:10:35;28.00;45.10
41884;DHT22;27566;50.930;5.328;2023-06-19T10:13:15;28.40;44.80
41884;DHT22;27566;50.930;5.328;2023-06-19T10:15:43;28.90;44.00
41884;DHT22;27566;50.930;5.328;2023-06-19T10:18:14;29.50;42.50
41884;DHT22;27566;50.930;5.328;2023-06-19T10:20:42;29.70;41.90
41884;DHT22;27566;50.930;5.328;2023-06-19T10:23:22;29.80;41.00
41884;DHT22;27566;50.930;5.328;2023-06-19T10:25:58;29.90;40.90
41884;DHT22;27566;50.930;5.328;2023-06-19T10:28:32;30.00;40.90
41884;DHT22;27566;50.930;5.328;2023-06-19T10:31:06;30.10;40.70
41884;DHT22;27566;50.930;5.328;2023-06-19T10:33:35;30.20;41.00
41884;DHT22;27566;50.930;5.328;2023-06-19T10:36:14;30.40;40.80
41884;DHT22;27566;50.930;5.328;2023-06-19T10:38:41;30.50;40.30
41884;DHT22;27566;50.930;5.328;2023-06-19T10:41:16;30.50;40.10
41884;DHT22;27566;50.930;5.328;2023-06-19T10:43:53;30.50;39.90
41884;DHT22;27566;50.930;5.328;2023-06-19T10:46:21;30.40;39.90
41884;DHT22;27566;50.930;5.328;2023-06-19T10:48:49;30.20;40.20
41884;DHT22;27566;50.930;5.328;2023-06-19T10:51:19;30.10;40.80
41884;DHT22;27566;50.930;5.328;2023-06-19T10:53:45;30.00;40.50
41884;DHT22;27566;50.930;5.328;2023-06-19T10:56:11;30.00;40.60
41884;DHT22;27566;50.930;5.328;2023-06-19T10:58:37;29.90;40.70
41884;DHT22;27566;50.930;5.328;2023-06-19T11:01:03;29.80;40.40
41884;DHT22;27566;50.930;5.328;2023-06-19T11:03:29;29.80;40.20
41884;DHT22;27566;50.930;5.328;2023-06-19T11:05:57;29.80;40.30
41884;DHT22;27566;50.930;5.328;2023-06-19T11:08:23;29.80;39.90
41884;DHT22;27566;50.930;5.328;2023-06-19T11:10:50;29.80;40.00
41884;DHT22;27566;50.930;5.328;2023-06-19T11:13:20;29.90;39.60
41884;DHT22;27566;50.930;5.328;2023-06-19T11:15:48;29.90;39.50
41884;DHT22;27566;50.930;5.328;2023-06-19T11:18:18;30.00;39.20
41884;DHT22;27566;50.930;5.328;2023-06-19T11:20:46;30.10;39.00
41884;DHT22;27566;50.930;5.328;2023-06-19T11:23:13;30.20;38.90
41884;DHT22;27566;50.930;5.328;2023-06-19T11:25:40;30.30;38.70
41884;DHT22;27566;50.930;5.328;2023-06-19T11:28:14;30.20;38.60
41884;DHT22;27566;50.930;5.328;2023-06-19T11:30:41;30.10;39.00
41884;DHT22;27566;50.930;5.328;2023-06-19T11:33:20;30.00;39.40
41884;DHT22;27566;50.930;5.328;2023-06-19T11:35:49;29.70;39.40
41884;DHT22;27566;50.930;5.328;2023-06-19T11:38:26;29.60;39.80
41884;DHT22;27566;50.930;5.328;2023-06-19T11:40:54;29.60;39.40
41884;DHT22;27566;50.930;5.328;2023-06-19T11:43:27;29.60;39.30
41884;DHT22;27566;50.930;5.328;2023-06-19T11:45:54;29.60;39.20
41884;DHT22;27566;50.930;5.328;2023-06-19T11:48:26;29.60;39.10
41884;DHT22;27566;50.930;5.328;2023-06-19T11:50:53;29.40;39.10
41884;DHT22;27566;50.930;5.328;2023-06-19T11:53:23;29.30;39.20
41884;DHT22;27566;50.930;5.328;2023-06-19T11:55:50;29.10;39.30
41884;DHT22;27566;50.930;5.328;2023-06-19T11:58:17;29.00;39.50
41884;DHT22;27566;50.930;5.328;2023-06-19T12:00:45;28.90;39.60
41884;DHT22;27566;50.930;5.328;2023-06-19T12:03:11;28.90;39.60
41884;DHT22;27566;50.930;5.328;2023-06-19T12:05:37;28.90;40.10
41884;DHT22;27566;50.930;5.328;2023-06-19T12:08:04;28.90;39.80
41884;DHT22;27566;50.930;5.328;2023-06-19T12:10:31;28.90;40.00
41884;DHT22;27566;50.930;5.328;2023-06-19T12:12:57;28.90;39.10
41884;DHT22;27566;50.930;5.328;2023-06-19T12:15:24;28.80;39.30
41884;DHT22;27566;50.930;5.328;2023-06-19T12:17:50;28.80;39.40
41884;DHT22;27566;50.930;5.328;2023-06-19T12:20:16;28.80;39.70
41884;DHT22;27566;50.930;5.328;2023-06-19T12:22:42;28.80;39.70
41884;DHT22;27566;50.930;5.328;2023-06-19T12:25:09;28.80;40.00
41884;DHT22;27566;50.930;5.328;2023-06-19T12:27:35;28.70;40.30
41884;DHT22;27566;50.930;5.328;2023-06-19T12:30:01;28.80;40.80
41884;DHT22;27566;50.930;5.328;2023-06-19T12:32:28;28.90;40.10
41884;DHT22;27566;50.930;5.328;2023-06-19T12:34:53;28.90;39.00
41884;DHT22;27566;50.930;5.328;2023-06-19T12:37:20;28.90;39.00
41884;DHT22;27566;50.930;5.328;2023-06-19T12:39:52;28.90;39.00
41884;DHT22;27566;50.930;5.328;2023-06-19T12:42:18;28.80;38.80
41884;DHT22;27566;50.930;5.328;2023-06-19T12:44:45;28.90;38.40
41884;DHT22;27566;50.930;5.328;2023-06-19T12:47:11;28.90;38.70
41884;DHT22;27566;50.930;5.328;2023-06-19T12:49:37;29.00;38.60
41884;DHT22;27566;50.930;5.328;2023-06-19T12:52:03;29.00;38.40
41884;DHT22;27566;50.930;5.328;2023-06-19T12:54:29;28.90;38.40
41884;DHT22;27566;50.930;5.328;2023-06-19T12:56:55;29.00;38.50
41884;DHT22;27566;50.930;5.328;2023-06-19T12:59:21;29.00;38.40
41884;DHT22;27566;50.930;5.328;2023-06-19T13:01:47;29.10;38.10
41884;DHT22;27566;50.930;5.328;2023-06-19T13:04:13;29.00;38.90
41884;DHT22;27566;50.930;5.328;2023-06-19T13:06:39;29.00;38.50
41884;DHT22;27566;50.930;5.328;2023-06-19T13:09:06;28.90;38.40
41884;DHT22;27566;50.930;5.328;2023-06-19T13:11:32;28.80;38.40
41884;DHT22;27566;50.930;5.328;2023-06-19T13:14:01;28.80;38.70
41884;DHT22;27566;50.930;5.328;2023-06-19T13:16:27;28.70;38.90
41884;DHT22;27566;50.930;5.328;2023-06-19T13:18:53;28.70;39.10
41884;DHT22;27566;50.930;5.328;2023-06-19T13:21:19;28.60;39.30
41884;DHT22;27566;50.930;5.328;2023-06-19T13:23:46;28.70;39.60
41884;DHT22;27566;50.930;5.328;2023-06-19T13:26:11;28.80;38.80
41884;DHT22;27566;50.930;5.328;2023-06-19T13:28:37;28.80;38.50
41884;DHT22;27566;50.930;5.328;2023-06-19T13:31:04;28.90;38.30
41884;DHT22;27566;50.930;5.328;2023-06-19T13:33:30;28.90;37.90
41884;DHT22;27566;50.930;5.328;2023-06-19T13:35:55;29.00;37.80
41884;DHT22;27566;50.930;5.328;2023-06-19T13:38:22;29.00;37.90
41884;DHT22;27566;50.930;5.328;2023-06-19T13:40:48;29.10;38.30
41884;DHT22;27566;50.930;5.328;2023-06-19T13:43:14;29.20;38.40
41884;DHT22;27566;50.930;5.328;2023-06-19T13:45:40;29.20;38.70
41884;DHT22;27566;50.930;5.328;2023-06-19T13:48:07;29.30;38.30
41884;DHT22;27566;50.930;5.328;2023-06-19T13:50:33;29.30;38.20
41884;DHT22;27566;50.930;5.328;2023-06-19T13:53:00;29.30;38.40
41884;DHT22;27566;50.930;5.328;2023-06-19T13:55:26;29.40;38.60
41884;DHT22;27566;50.930;5.328;2023-06-19T13:57:52;29.40;38.10
41884;DHT22;27566;50.930;5.328;2023-06-19T14:00:18;29.50;37.50
41884;DHT22;27566;50.930;5.328;2023-06-19T14:02:44;29.50;37.50
41884;DHT22;27566;50.930;5.328;2023-06-19T14:05:11;29.50;37.60
41884;DHT22;27566;50.930;5.328;2023-06-19T14:07:37;29.50;37.90
41884;DHT22;27566;50.930;5.328;2023-06-19T14:10:04;29.60;37.90
41884;DHT22;27566;50.930;5.328;2023-06-19T14:12:30;29.60;37.60
41884;DHT22;27566;50.930;5.328;2023-06-19T14:14:56;29.70;37.60
41884;DHT22;27566;50.930;5.328;2023-06-19T14:17:22;29.80;37.60
41884;DHT22;27566;50.930;5.328;2023-06-19T14:19:49;29.90;37.70
41884;DHT22;27566;50.930;5.328;2023-06-19T14:22:16;30.10;37.30
41884;DHT22;27566;50.930;5.328;2023-06-19T14:24:42;30.20;37.00
41884;DHT22;27566;50.930;5.328;2023-06-19T14:27:08;30.30;36.70
41884;DHT22;27566;50.930;5.328;2023-06-19T14:29:34;30.40;36.30
41884;DHT22;27566;50.930;5.328;2023-06-19T14:32:00;30.50;36.00
41884;DHT22;27566;50.930;5.328;2023-06-19T14:34:26;30.50;35.50
41884;DHT22;27566;50.930;5.328;2023-06-19T14:36:52;30.50;35.50
41884;DHT22;27566;50.930;5.328;2023-06-19T14:39:18;30.40;35.80
41884;DHT22;27566;50.930;5.328;2023-06-19T14:41:44;30.40;36.10
41884;DHT22;27566;50.930;5.328;2023-06-19T14:44:10;30.40;36.20
41884;DHT22;27566;50.930;5.328;2023-06-19T14:46:36;30.30;35.90
41884;DHT22;27566;50.930;5.328;2023-06-19T14:49:06;30.30;36.00
41884;DHT22;27566;50.930;5.328;2023-06-19T14:51:32;30.40;36.20
41884;DHT22;27566;50.930;5.328;2023-06-19T14:53:58;30.40;36.10
41884;DHT22;27566;50.930;5.328;2023-06-19T14:56:23;30.50;36.00
41884;DHT22;27566;50.930;5.328;2023-06-19T14:58:50;30.50;35.50
41884;DHT22;27566;50.930;5.328;2023-06-19T15:01:15;30.50;35.50
41884;DHT22;27566;50.930;5.328;2023-06-19T15:03:42;30.30;35.70
41884;DHT22;27566;50.930;5.328;2023-06-19T15:06:08;30.20;36.20
41884;DHT22;27566;50.930;5.328;2023-06-19T15:08:34;30.20;37.10
41884;DHT22;27566;50.930;5.328;2023-06-19T15:11:03;30.10;36.50
41884;DHT22;27566;50.930;5.328;2023-06-19T15:13:30;30.00;36.60
41884;DHT22;27566;50.930;5.328;2023-06-19T15:15:56;30.00;36.70
41884;DHT22;27566;50.930;5.328;2023-06-19T15:18:27;30.00;36.70
41884;DHT22;27566;50.930;5.328;2023-06-19T15:20:53;29.90;37.50
41884;DHT22;27566;50.930;5.328;2023-06-19T15:23:19;29.90;36.90
41884;DHT22;27566;50.930;5.328;2023-06-19T15:25:45;29.90;37.30
41884;DHT22;27566;50.930;5.328;2023-06-19T15:28:11;29.90;37.30
41884;DHT22;27566;50.930;5.328;2023-06-19T15:30:37;29.90;37.50
41884;DHT22;27566;50.930;5.328;2023-06-19T15:33:03;30.00;37.50